sensor_id;sensor_type;location;lat;lon;timestamp;temperature;humidity
22950;DHT22;11641;51.018;4.474;2023-02-28T00:00:12;2.70;99.90
22950;DHT22;11641;51.018;4.474;2023-02-28T00:02:40;2.70;99.90
22950;DHT22;11641;51.018;4.474;2023-02-28T00:05:06;2.60;99.90
22950;DHT22;11641;51.018;4.474;2023-02-28T00:07:32;2.60;99.90
22950;DHT22;11641;51.018;4.474;2023-02-28T00:10:00;2.60;99.90
22950;DHT22;11641;51.018;4.474;2023-02-28T00:12:26;2.60;99.90
22950;DHT22;11641;51.018;4.474;2023-02-28T00:14:52;2.70;99.90
22950;DHT22;11641;51.018;4.474;2023-02-28T00:17:18;2.60;99.90
22950;DHT22;11641;51.018;4.474;2023-02-28T00:19:48;2.60;99.90
22950;DHT22;11641;51.018;4.474;2023-02-28T00:22:15;2.60;99.90
22950;DHT22;11641;51.018;4.474;2023-02-28T00:24:41;2.60;99.90
22950;DHT22;11641;51.018;4.474;2023-02-28T00:27:06;2.60;99.90
22950;DHT22;11641;51.018;4.474;2023-02-28T00:29:32;2.50;99.90
22950;DHT22;11641;51.018;4.474;2023-02-28T00:31:58;2.50;99.90
22950;DHT22;11641;51.018;4.474;2023-02-28T00:34:23;2.50;99.90
22950;DHT22;11641;51.018;4.474;2023-02-28T00:36:49;2.50;99.90
22950;DHT22;11641;51.018;4.474;2023-02-28T00:39:15;2.50;99.90
22950;DHT22;11641;51.018;4.474;2023-02-28T00:41:41;2.50;99.90
22950;DHT22;11641;51.018;4.474;2023-02-28T00:44:09;2.50;99.90
22950;DHT22;11641;51.018;4.474;2023-02-28T00:46:34;2.50;99.90
22950;DHT22;11641;51.018;4.474;2023-02-28T00:49:00;2.40;99.90
22950;DHT22;11641;51.018;4.474;2023-02-28T00:51:26;2.40;99.90
22950;DHT22;11641;51.018;4.474;2023-02-28T00:53:54;2.40;99.90
22950;DHT22;11641;51.018;4.474;2023-02-28T00:56:22;2.30;99.90
22950;DHT22;11641;51.018;4.474;2023-02-28T00:58:48;2.30;99.90
22950;DHT22;11641;51.018;4.474;2023-02-28T01:01:13;2.30;99.90
22950;DHT22;11641;51.018;4.474;2023-02-28T01:03:39;2.30;99.90
22950;DHT22;11641;51.018;4.474;2023-02-28T01:06:05;2.40;99.90
22950;DHT22;11641;51.018;4.474;2023-02-28T01:08:31;2.50;99.90
22950;DHT22;11641;51.018;4.474;2023-02-28T01:10:56;2.50;99.90
22950;DHT22;11641;51.018;4.474;2023-02-28T01:13:23;2.50;99.90
22950;DHT22;11641;51.018;4.474;2023-02-28T01:15:55;2.40;99.90
22950;DHT22;11641;51.018;4.474;2023-02-28T01:18:22;2.40;99.90
22950;DHT22;11641;51.018;4.474;2023-02-28T01:20:48;2.30;99.90
22950;DHT22;11641;51.018;4.474;2023-02-28T01:23:14;2.40;99.90
22950;DHT22;11641;51.018;4.474;2023-02-28T01:25:40;2.30;99.90
22950;DHT22;11641;51.018;4.474;2023-02-28T01:28:06;2.30;99.90
22950;DHT22;11641;51.018;4.474;2023-02-28T01:30:32;2.20;99.90
22950;DHT22;11641;51.018;4.474;2023-02-28T01:32:58;2.10;99.90
22950;DHT22;11641;51.018;4.474;2023-02-28T01:35:24;2.10;99.90
22950;DHT22;11641;51.018;4.474;2023-02-28T01:37:50;2.10;99.90
22950;DHT22;11641;51.018;4.474;2023-02-28T01:40:16;2.10;99.90
22950;DHT22;11641;51.018;4.474;2023-02-28T01:42:41;2.10;99.90
22950;DHT22;11641;51.018;4.474;2023-02-28T01:45:26;2.00;99.90
22950;DHT22;11641;51.018;4.474;2023-02-28T01:48:00;2.10;99.90
22950;DHT22;11641;51.018;4.474;2023-02-28T01:50:31;2.00;99.90
22950;DHT22;11641;51.018;4.474;2023-02-28T01:53:00;2.00;99.90
22950;DHT22;11641;51.018;4.474;2023-02-28T01:55:30;1.90;99.90
22950;DHT22;11641;51.018;4.474;2023-02-28T01:57:58;1.80;99.90
22950;DHT22;11641;51.018;4.474;2023-02-28T02:00:27;1.90;99.90
22950;DHT22;11641;51.018;4.474;2023-02-28T02:02:56;1.90;99.90
22950;DHT22;11641;51.018;4.474;2023-02-28T02:05:26;1.90;99.90
22950;DHT22;11641;51.018;4.474;2023-02-28T02:08:09;1.80;99.90
22950;DHT22;11641;51.018;4.474;2023-02-28T02:10:50;1.80;99.90
22950;DHT22;11641;51.018;4.474;2023-02-28T02:14:02;1.70;99.90
22950;DHT22;11641;51.018;4.474;2023-02-28T02:28:04;1.70;99.90
22950;DHT22;11641;51.018;4.474;2023-02-28T02:36:11;1.60;99.90
22950;DHT22;11641;51.018;4.474;2023-02-28T02:39:02;1.60;99.90
22950;DHT22;11641;51.018;4.474;2023-02-28T02:41:36;1.60;99.90
22950;DHT22;11641;51.018;4.474;2023-02-28T02:44:06;1.60;99.90
22950;DHT22;11641;51.018;4.474;2023-02-28T02:46:43;1.60;99.90
22950;DHT22;11641;51.018;4.474;2023-02-28T02:49:15;1.50;99.90
22950;DHT22;11641;51.018;4.474;2023-02-28T02:51:42;1.50;99.90
22950;DHT22;11641;51.018;4.474;2023-02-28T02:54:30;1.50;99.90
22950;DHT22;11641;51.018;4.474;2023-02-28T02:56:59;1.50;99.90
22950;DHT22;11641;51.018;4.474;2023-02-28T02:59:28;1.50;99.90
22950;DHT22;11641;51.018;4.474;2023-02-28T03:01:59;1.50;99.90
22950;DHT22;11641;51.018;4.474;2023-02-28T03:04:30;1.50;99.90
22950;DHT22;11641;51.018;4.474;2023-02-28T03:07:00;1.50;99.90
22950;DHT22;11641;51.018;4.474;2023-02-28T03:09:26;1.60;99.90
22950;DHT22;11641;51.018;4.474;2023-02-28T03:11:54;1.40;99.90
22950;DHT22;11641;51.018;4.474;2023-02-28T03:30:54;1.30;99.90
22950;DHT22;11641;51.018;4.474;2023-02-28T03:36:02;1.30;99.90
22950;DHT22;11641;51.018;4.474;2023-02-28T03:41:23;1.30;99.90
22950;DHT22;11641;51.018;4.474;2023-02-28T03:44:19;1.30;99.90
22950;DHT22;11641;51.018;4.474;2023-02-28T03:46:52;1.20;99.90
22950;DHT22;11641;51.018;4.474;2023-02-28T03:49:24;1.30;99.90
22950;DHT22;11641;51.018;4.474;2023-02-28T03:51:53;1.20;99.90
22950;DHT22;11641;51.018;4.474;2023-02-28T03:54:28;1.30;99.90
22950;DHT22;11641;51.018;4.474;2023-02-28T03:57:07;1.40;99.90
22950;DHT22;11641;51.018;4.474;2023-02-28T03:59:56;1.30;99.90
22950;DHT22;11641;51.018;4.474;2023-02-28T04:02:23;1.40;99.90
22950;DHT22;11641;51.018;4.474;2023-02-28T04:04:48;1.40;99.90
22950;DHT22;11641;51.018;4.474;2023-02-28T04:07:15;1.30;99.90
22950;DHT22;11641;51.018;4.474;2023-02-28T04:09:41;1.30;99.90
22950;DHT22;11641;51.018;4.474;2023-02-28T04:12:07;1.30;99.90
22950;DHT22;11641;51.018;4.474;2023-02-28T04:14:32;1.30;99.90
22950;DHT22;11641;51.018;4.474;2023-02-28T04:16:58;1.20;99.90
22950;DHT22;11641;51.018;4.474;2023-02-28T04:19:24;1.20;99.90
22950;DHT22;11641;51.018;4.474;2023-02-28T04:21:53;1.20;99.90
22950;DHT22;11641;51.018;4.474;2023-02-28T04:24:23;1.10;99.90
22950;DHT22;11641;51.018;4.474;2023-02-28T04:26:51;1.20;99.90
22950;DHT22;11641;51.018;4.474;2023-02-28T04:29:20;1.10;99.90
22950;DHT22;11641;51.018;4.474;2023-02-28T04:31:46;1.10;99.90
22950;DHT22;11641;51.018;4.474;2023-02-28T04:34:14;1.10;99.90
22950;DHT22;11641;51.018;4.474;2023-02-28T04:36:40;1.20;99.90
22950;DHT22;11641;51.018;4.474;2023-02-28T04:39:05;1.30;99.90
22950;DHT22;11641;51.018;4.474;2023-02-28T04:41:31;1.50;99.90
22950;DHT22;11641;51.018;4.474;2023-02-28T04:43:57;1.70;99.90
22950;DHT22;11641;51.018;4.474;2023-02-28T04:46:27;1.90;99.90
22950;DHT22;11641;51.018;4.474;2023-02-28T04:48:53;2.00;99.90
22950;DHT22;11641;51.018;4.474;2023-02-28T04:51:24;2.20;99.90
22950;DHT22;11641;51.018;4.474;2023-02-28T04:53:50;2.40;99.90
22950;DHT22;11641;51.018;4.474;2023-02-28T04:56:18;2.50;99.90
22950;DHT22;11641;51.018;4.474;2023-02-28T04:58:45;2.60;99.90
22950;DHT22;11641;51.018;4.474;2023-02-28T05:01:24;2.70;99.90
22950;DHT22;11641;51.018;4.474;2023-02-28T05:03:51;2.70;99.90
22950;DHT22;11641;51.018;4.474;2023-02-28T05:06:18;2.70;99.90
22950;DHT22;11641;51.018;4.474;2023-02-28T05:08:46;2.80;99.90
22950;DHT22;11641;51.018;4.474;2023-02-28T05:11:32;2.80;99.90
22950;DHT22;11641;51.018;4.474;2023-02-28T05:14:02;2.80;99.90
22950;DHT22;11641;51.018;4.474;2023-02-28T05:16:29;2.90;99.90
22950;DHT22;11641;51.018;4.474;2023-02-28T05:18:57;3.00;99.90
22950;DHT22;11641;51.018;4.474;2023-02-28T05:21:35;3.00;99.90
22950;DHT22;11641;51.018;4.474;2023-02-28T05:24:06;3.00;99.90
22950;DHT22;11641;51.018;4.474;2023-02-28T05:26:37;2.90;99.90
22950;DHT22;11641;51.018;4.474;2023-02-28T05:29:03;3.00;99.90
22950;DHT22;11641;51.018;4.474;2023-02-28T05:31:28;3.00;99.90
22950;DHT22;11641;51.018;4.474;2023-02-28T05:33:54;3.10;99.90
22950;DHT22;11641;51.018;4.474;2023-02-28T05:36:20;3.10;99.90
22950;DHT22;11641;51.018;4.474;2023-02-28T05:38:50;3.20;99.90
22950;DHT22;11641;51.018;4.474;2023-02-28T05:41:16;3.20;99.90
22950;DHT22;11641;51.018;4.474;2023-02-28T05:43:45;3.10;99.90
22950;DHT22;11641;51.018;4.474;2023-02-28T05:46:11;3.10;99.90
22950;DHT22;11641;51.018;4.474;2023-02-28T05:48:42;3.10;99.90
22950;DHT22;11641;51.018;4.474;2023-02-28T05:51:10;3.10;99.90
22950;DHT22;11641;51.018;4.474;2023-02-28T05:53:36;3.20;99.90
22950;DHT22;11641;51.018;4.474;2023-02-28T05:56:02;3.20;99.90
22950;DHT22;11641;51.018;4.474;2023-02-28T05:58:30;3.20;99.90
22950;DHT22;11641;51.018;4.474;2023-02-28T06:01:00;3.10;99.90
22950;DHT22;11641;51.018;4.474;2023-02-28T06:03:29;3.10;99.90
22950;DHT22;11641;51.018;4.474;2023-02-28T06:05:54;3.10;99.90
22950;DHT22;11641;51.018;4.474;2023-02-28T06:08:20;3.30;99.90
22950;DHT22;11641;51.018;4.474;2023-02-28T06:10:48;3.20;99.90
22950;DHT22;11641;51.018;4.474;2023-02-28T06:13:14;3.20;99.90
22950;DHT22;11641;51.018;4.474;2023-02-28T06:15:42;3.20;99.90
22950;DHT22;11641;51.018;4.474;2023-02-28T06:18:08;3.20;99.90
22950;DHT22;11641;51.018;4.474;2023-02-28T06:20:34;3.20;99.90
22950;DHT22;11641;51.018;4.474;2023-02-28T06:22:59;3.30;99.90
22950;DHT22;11641;51.018;4.474;2023-02-28T06:25:26;3.30;99.90
22950;DHT22;11641;51.018;4.474;2023-02-28T06:27:52;3.30;99.90
22950;DHT22;11641;51.018;4.474;2023-02-28T06:30:18;3.30;99.90
22950;DHT22;11641;51.018;4.474;2023-02-28T06:32:49;3.40;99.90
22950;DHT22;11641;51.018;4.474;2023-02-28T06:35:14;3.40;99.90
22950;DHT22;11641;51.018;4.474;2023-02-28T06:37:42;3.50;99.90
22950;DHT22;11641;51.018;4.474;2023-02-28T06:40:09;3.50;99.90
22950;DHT22;11641;51.018;4.474;2023-02-28T06:42:35;3.40;99.90
22950;DHT22;11641;51.018;4.474;2023-02-28T06:45:04;3.50;99.90
22950;DHT22;11641;51.018;4.474;2023-02-28T06:47:37;3.50;99.90
22950;DHT22;11641;51.018;4.474;2023-02-28T06:50:03;3.60;99.90
22950;DHT22;11641;51.018;4.474;2023-02-28T06:52:29;3.60;99.90
22950;DHT22;11641;51.018;4.474;2023-02-28T06:54:55;3.70;99.90
22950;DHT22;11641;51.018;4.474;2023-02-28T06:57:32;3.80;99.90
22950;DHT22;11641;51.018;4.474;2023-02-28T06:59:59;3.90;99.90
22950;DHT22;11641;51.018;4.474;2023-02-28T07:02:25;3.90;99.90
22950;DHT22;11641;51.018;4.474;2023-02-28T07:04:51;3.90;99.90
22950;DHT22;11641;51.018;4.474;2023-02-28T07:07:17;3.80;99.90
22950;DHT22;11641;51.018;4.474;2023-02-28T07:09:42;3.90;99.90
22950;DHT22;11641;51.018;4.474;2023-02-28T07:12:10;4.00;99.90
22950;DHT22;11641;51.018;4.474;2023-02-28T07:14:36;3.90;99.90
22950;DHT22;11641;51.018;4.474;2023-02-28T07:17:02;3.90;99.90
22950;DHT22;11641;51.018;4.474;2023-02-28T07:19:28;4.00;99.90
22950;DHT22;11641;51.018;4.474;2023-02-28T07:21:54;3.90;99.90
22950;DHT22;11641;51.018;4.474;2023-02-28T07:24:20;3.90;99.90
22950;DHT22;11641;51.018;4.474;2023-02-28T07:26:53;4.00;99.90
22950;DHT22;11641;51.018;4.474;2023-02-28T07:29:19;4.10;99.90
22950;DHT22;11641;51.018;4.474;2023-02-28T07:31:45;4.30;99.90
22950;DHT22;11641;51.018;4.474;2023-02-28T07:34:12;4.40;99.90
22950;DHT22;11641;51.018;4.474;2023-02-28T07:36:40;4.40;99.90
22950;DHT22;11641;51.018;4.474;2023-02-28T07:39:08;4.50;99.90
22950;DHT22;11641;51.018;4.474;2023-02-28T07:41:34;4.30;99.90
22950;DHT22;11641;51.018;4.474;2023-02-28T07:44:07;4.40;99.90
22950;DHT22;11641;51.018;4.474;2023-02-28T07:46:32;4.30;99.90
22950;DHT22;11641;51.018;4.474;2023-02-28T07:49:03;4.40;99.90
22950;DHT22;11641;51.018;4.474;2023-02-28T07:51:30;4.60;99.90
22950;DHT22;11641;51.018;4.474;2023-02-28T07:53:58;4.60;99.90
22950;DHT22;11641;51.018;4.474;2023-02-28T07:56:24;4.70;99.90
22950;DHT22;11641;51.018;4.474;2023-02-28T07:58:49;5.00;99.90
22950;DHT22;11641;51.018;4.474;2023-02-28T08:01:15;5.20;99.90
22950;DHT22;11641;51.018;4.474;2023-02-28T08:03:41;5.40;99.90
22950;DHT22;11641;51.018;4.474;2023-02-28T08:06:08;5.60;99.90
22950;DHT22;11641;51.018;4.474;2023-02-28T08:08:39;5.90;99.90
22950;DHT22;11641;51.018;4.474;2023-02-28T08:11:05;6.30;99.90
22950;DHT22;11641;51.018;4.474;2023-02-28T08:13:31;6.60;99.90
22950;DHT22;11641;51.018;4.474;2023-02-28T08:16:01;6.80;99.90
22950;DHT22;11641;51.018;4.474;2023-02-28T08:18:30;6.90;99.90
22950;DHT22;11641;51.018;4.474;2023-02-28T08:20:55;7.30;99.90
22950;DHT22;11641;51.018;4.474;2023-02-28T08:23:22;7.40;99.90
22950;DHT22;11641;51.018;4.474;2023-02-28T08:25:55;7.80;99.90
22950;DHT22;11641;51.018;4.474;2023-02-28T08:28:22;7.80;99.90
22950;DHT22;11641;51.018;4.474;2023-02-28T08:30:48;8.10;99.90
22950;DHT22;11641;51.018;4.474;2023-02-28T08:33:14;8.30;99.90
22950;DHT22;11641;51.018;4.474;2023-02-28T08:35:39;8.60;99.90
22950;DHT22;11641;51.018;4.474;2023-02-28T08:38:05;8.80;99.90
22950;DHT22;11641;51.018;4.474;2023-02-28T08:40:33;9.10;99.90
22950;DHT22;11641;51.018;4.474;2023-02-28T08:43:01;9.30;99.90
22950;DHT22;11641;51.018;4.474;2023-02-28T08:45:29;9.40;99.90
22950;DHT22;11641;51.018;4.474;2023-02-28T08:47:57;9.50;99.90
22950;DHT22;11641;51.018;4.474;2023-02-28T08:50:22;9.50;99.90
22950;DHT22;11641;51.018;4.474;2023-02-28T08:52:48;9.50;99.90
22950;DHT22;11641;51.018;4.474;2023-02-28T08:55:14;9.20;99.60
22950;DHT22;11641;51.018;4.474;2023-02-28T08:57:40;8.80;99.70
22950;DHT22;11641;51.018;4.474;2023-02-28T09:00:06;8.60;99.90
22950;DHT22;11641;51.018;4.474;2023-02-28T09:02:33;8.40;99.90
22950;DHT22;11641;51.018;4.474;2023-02-28T09:04:58;8.40;99.90
22950;DHT22;11641;51.018;4.474;2023-02-28T09:07:25;8.60;98.60
22950;DHT22;11641;51.018;4.474;2023-02-28T09:09:50;8.80;97.20
22950;DHT22;11641;51.018;4.474;2023-02-28T09:12:27;9.30;94.80
22950;DHT22;11641;51.018;4.474;2023-02-28T09:14:57;9.90;93.10
22950;DHT22;11641;51.018;4.474;2023-02-28T09:17:22;10.60;90.20
22950;DHT22;11641;51.018;4.474;2023-02-28T09:19:49;10.90;87.00
22950;DHT22;11641;51.018;4.474;2023-02-28T09:22:14;11.60;85.10
22950;DHT22;11641;51.018;4.474;2023-02-28T09:24:40;12.10;81.60
22950;DHT22;11641;51.018;4.474;2023-02-28T09:27:06;12.70;77.30
22950;DHT22;11641;51.018;4.474;2023-02-28T09:29:33;13.10;72.40
22950;DHT22;11641;51.018;4.474;2023-02-28T09:31:59;13.60;69.60
22950;DHT22;11641;51.018;4.474;2023-02-28T09:34:30;13.80;68.10
22950;DHT22;11641;51.018;4.474;2023-02-28T09:36:56;14.00;65.40
22950;DHT22;11641;51.018;4.474;2023-02-28T09:39:22;14.50;63.40
22950;DHT22;11641;51.018;4.474;2023-02-28T09:41:51;15.50;61.60
22950;DHT22;11641;51.018;4.474;2023-02-28T09:44:31;15.80;59.70
22950;DHT22;11641;51.018;4.474;2023-02-28T09:49:49;17.30;55.00
22950;DHT22;11641;51.018;4.474;2023-02-28T09:52:20;17.60;52.00
22950;DHT22;11641;51.018;4.474;2023-02-28T09:54:49;17.60;52.40
22950;DHT22;11641;51.018;4.474;2023-02-28T09:57:36;18.50;51.00
22950;DHT22;11641;51.018;4.474;2023-02-28T10:00:18;18.60;50.20
22950;DHT22;11641;51.018;4.474;2023-02-28T10:02:58;19.50;49.60
22950;DHT22;11641;51.018;4.474;2023-02-28T10:05:42;19.30;48.80
22950;DHT22;11641;51.018;4.474;2023-02-28T10:08:18;19.80;48.20
22950;DHT22;11641;51.018;4.474;2023-02-28T10:10:49;20.50;46.70
22950;DHT22;11641;51.018;4.474;2023-02-28T10:19:17;21.40;41.90
22950;DHT22;11641;51.018;4.474;2023-02-28T10:21:57;21.70;42.00
22950;DHT22;11641;51.018;4.474;2023-02-28T10:24:33;21.90;41.10
22950;DHT22;11641;51.018;4.474;2023-02-28T10:30:24;22.10;39.10
22950;DHT22;11641;51.018;4.474;2023-02-28T10:32:51;22.20;38.60
22950;DHT22;11641;51.018;4.474;2023-02-28T10:35:24;22.00;38.80
22950;DHT22;11641;51.018;4.474;2023-02-28T10:37:56;22.50;38.30
22950;DHT22;11641;51.018;4.474;2023-02-28T10:43:05;23.70;36.50
22950;DHT22;11641;51.018;4.474;2023-02-28T10:45:33;23.50;35.50
22950;DHT22;11641;51.018;4.474;2023-02-28T10:48:06;23.40;35.40
22950;DHT22;11641;51.018;4.474;2023-02-28T10:50:51;24.40;35.00
22950;DHT22;11641;51.018;4.474;2023-02-28T10:56:02;25.00;33.60
22950;DHT22;11641;51.018;4.474;2023-02-28T11:01:43;24.70;32.70
22950;DHT22;11641;51.018;4.474;2023-02-28T11:09:49;25.10;32.20
22950;DHT22;11641;51.018;4.474;2023-02-28T11:15:06;26.50;32.30
22950;DHT22;11641;51.018;4.474;2023-02-28T11:17:33;27.30;31.70
22950;DHT22;11641;51.018;4.474;2023-02-28T11:20:05;28.30;30.20
22950;DHT22;11641;51.018;4.474;2023-02-28T11:22:37;27.90;29.60
22950;DHT22;11641;51.018;4.474;2023-02-28T11:25:13;27.20;30.20
22950;DHT22;11641;51.018;4.474;2023-02-28T11:30:40;27.10;30.00
22950;DHT22;11641;51.018;4.474;2023-02-28T11:33:30;26.90;30.20
22950;DHT22;11641;51.018;4.474;2023-02-28T11:36:07;27.40;29.50
22950;DHT22;11641;51.018;4.474;2023-02-28T11:38:36;26.60;29.40
22950;DHT22;11641;51.018;4.474;2023-02-28T11:41:05;25.90;30.00
22950;DHT22;11641;51.018;4.474;2023-02-28T11:46:23;28.30;29.20
22950;DHT22;11641;51.018;4.474;2023-02-28T11:51:47;29.60;28.20
22950;DHT22;11641;51.018;4.474;2023-02-28T11:54:23;29.60;28.20
22950;DHT22;11641;51.018;4.474;2023-02-28T11:57:00;29.10;28.00
22950;DHT22;11641;51.018;4.474;2023-02-28T12:02:31;28.60;28.80
22950;DHT22;11641;51.018;4.474;2023-02-28T12:05:34;28.40;28.40
22950;DHT22;11641;51.018;4.474;2023-02-28T12:08:36;29.60;28.60
22950;DHT22;11641;51.018;4.474;2023-02-28T12:11:02;30.80;27.60
22950;DHT22;11641;51.018;4.474;2023-02-28T12:16:27;31.60;27.10
22950;DHT22;11641;51.018;4.474;2023-02-28T12:19:18;30.20;26.50
22950;DHT22;11641;51.018;4.474;2023-02-28T12:27:17;28.90;27.20
22950;DHT22;11641;51.018;4.474;2023-02-28T12:29:56;28.70;27.00
22950;DHT22;11641;51.018;4.474;2023-02-28T12:32:39;28.90;27.20
22950;DHT22;11641;51.018;4.474;2023-02-28T12:35:12;29.40;26.90
22950;DHT22;11641;51.018;4.474;2023-02-28T12:43:20;30.20;26.30
22950;DHT22;11641;51.018;4.474;2023-02-28T12:45:53;30.60;26.60
22950;DHT22;11641;51.018;4.474;2023-02-28T12:48:43;31.10;26.10
22950;DHT22;11641;51.018;4.474;2023-02-28T12:51:12;30.70;26.20
22950;DHT22;11641;51.018;4.474;2023-02-28T12:56:15;31.10;25.70
22950;DHT22;11641;51.018;4.474;2023-02-28T12:58:46;30.60;25.90
22950;DHT22;11641;51.018;4.474;2023-02-28T13:01:45;30.30;26.40
22950;DHT22;11641;51.018;4.474;2023-02-28T13:07:30;31.20;26.40
22950;DHT22;11641;51.018;4.474;2023-02-28T13:10:00;31.50;26.10
22950;DHT22;11641;51.018;4.474;2023-02-28T13:12:27;31.90;25.60
22950;DHT22;11641;51.018;4.474;2023-02-28T13:15:07;31.90;25.30
22950;DHT22;11641;51.018;4.474;2023-02-28T13:17:39;31.60;25.50
22950;DHT22;11641;51.018;4.474;2023-02-28T13:22:49;31.90;25.70
22950;DHT22;11641;51.018;4.474;2023-02-28T13:27:50;31.60;25.70
22950;DHT22;11641;51.018;4.474;2023-02-28T13:35:46;31.60;25.60
22950;DHT22;11641;51.018;4.474;2023-02-28T13:38:24;30.80;25.80
22950;DHT22;11641;51.018;4.474;2023-02-28T13:44:05;30.70;25.70
22950;DHT22;11641;51.018;4.474;2023-02-28T13:46:33;30.60;26.00
22950;DHT22;11641;51.018;4.474;2023-02-28T13:57:53;31.10;25.60
22950;DHT22;11641;51.018;4.474;2023-02-28T14:03:27;30.30;26.00
22950;DHT22;11641;51.018;4.474;2023-02-28T14:08:52;29.90;26.50
22950;DHT22;11641;51.018;4.474;2023-02-28T14:11:30;28.60;26.60
22950;DHT22;11641;51.018;4.474;2023-02-28T14:13:57;29.20;27.10
22950;DHT22;11641;51.018;4.474;2023-02-28T14:16:27;29.70;26.70
22950;DHT22;11641;51.018;4.474;2023-02-28T14:19:14;29.90;26.80
22950;DHT22;11641;51.018;4.474;2023-02-28T14:21:58;30.00;26.60
22950;DHT22;11641;51.018;4.474;2023-02-28T14:25:15;28.70;26.50
22950;DHT22;11641;51.018;4.474;2023-02-28T14:30:19;28.80;27.00
22950;DHT22;11641;51.018;4.474;2023-02-28T14:33:17;29.40;27.00
22950;DHT22;11641;51.018;4.474;2023-02-28T14:38:32;28.70;27.30
22950;DHT22;11641;51.018;4.474;2023-02-28T14:41:00;28.80;27.10
22950;DHT22;11641;51.018;4.474;2023-02-28T14:43:28;29.40;27.20
22950;DHT22;11641;51.018;4.474;2023-02-28T14:46:01;29.30;27.20
22950;DHT22;11641;51.018;4.474;2023-02-28T14:48:31;29.70;26.90
22950;DHT22;11641;51.018;4.474;2023-02-28T14:51:00;29.00;27.70
22950;DHT22;11641;51.018;4.474;2023-02-28T14:53:30;29.00;26.90
22950;DHT22;11641;51.018;4.474;2023-02-28T14:56:00;28.30;27.00
22950;DHT22;11641;51.018;4.474;2023-02-28T14:58:33;28.40;27.60
22950;DHT22;11641;51.018;4.474;2023-02-28T15:01:01;28.30;27.40
22950;DHT22;11641;51.018;4.474;2023-02-28T15:03:34;29.20;27.50
22950;DHT22;11641;51.018;4.474;2023-02-28T15:06:13;28.90;27.10
22950;DHT22;11641;51.018;4.474;2023-02-28T15:08:39;29.10;27.30
22950;DHT22;11641;51.018;4.474;2023-02-28T15:11:11;29.00;27.10
22950;DHT22;11641;51.018;4.474;2023-02-28T15:13:50;29.20;27.30
22950;DHT22;11641;51.018;4.474;2023-02-28T15:16:25;28.40;27.50
22950;DHT22;11641;51.018;4.474;2023-02-28T15:19:00;28.20;27.90
22950;DHT22;11641;51.018;4.474;2023-02-28T15:21:35;28.10;28.00
22950;DHT22;11641;51.018;4.474;2023-02-28T15:24:31;28.20;27.60
22950;DHT22;11641;51.018;4.474;2023-02-28T15:27:07;27.70;28.50
22950;DHT22;11641;51.018;4.474;2023-02-28T15:29:44;27.90;28.70
22950;DHT22;11641;51.018;4.474;2023-02-28T15:32:33;27.60;28.40
22950;DHT22;11641;51.018;4.474;2023-02-28T15:38:02;27.90;28.40
22950;DHT22;11641;51.018;4.474;2023-02-28T15:40:51;27.70;28.40
22950;DHT22;11641;51.018;4.474;2023-02-28T15:43:32;26.90;28.60
22950;DHT22;11641;51.018;4.474;2023-02-28T15:45:59;26.40;28.70
22950;DHT22;11641;51.018;4.474;2023-02-28T15:51:17;25.70;29.60
22950;DHT22;11641;51.018;4.474;2023-02-28T15:53:48;25.60;29.50
22950;DHT22;11641;51.018;4.474;2023-02-28T15:56:37;26.00;29.40
22950;DHT22;11641;51.018;4.474;2023-02-28T15:59:06;26.20;29.30
22950;DHT22;11641;51.018;4.474;2023-02-28T16:01:34;25.90;29.50
22950;DHT22;11641;51.018;4.474;2023-02-28T16:04:06;25.70;29.40
22950;DHT22;11641;51.018;4.474;2023-02-28T16:09:01;24.90;29.90
22950;DHT22;11641;51.018;4.474;2023-02-28T16:11:27;25.10;30.30
22950;DHT22;11641;51.018;4.474;2023-02-28T16:13:53;24.50;30.60
22950;DHT22;11641;51.018;4.474;2023-02-28T16:16:21;24.30;31.10
22950;DHT22;11641;51.018;4.474;2023-02-28T16:18:47;24.20;30.90
22950;DHT22;11641;51.018;4.474;2023-02-28T16:21:13;24.30;31.00
22950;DHT22;11641;51.018;4.474;2023-02-28T16:23:39;23.60;31.50
22950;DHT22;11641;51.018;4.474;2023-02-28T16:26:05;23.00;31.90
22950;DHT22;11641;51.018;4.474;2023-02-28T16:28:34;22.30;32.90
22950;DHT22;11641;51.018;4.474;2023-02-28T16:31:01;20.40;34.70
22950;DHT22;11641;51.018;4.474;2023-02-28T16:33:33;18.00;37.70
22950;DHT22;11641;51.018;4.474;2023-02-28T16:36:00;15.70;41.10
22950;DHT22;11641;51.018;4.474;2023-02-28T16:38:28;14.30;43.40
22950;DHT22;11641;51.018;4.474;2023-02-28T16:40:55;13.30;45.50
22950;DHT22;11641;51.018;4.474;2023-02-28T16:43:24;12.60;47.30
22950;DHT22;11641;51.018;4.474;2023-02-28T16:45:58;11.90;48.10
22950;DHT22;11641;51.018;4.474;2023-02-28T16:48:24;11.00;49.70
22950;DHT22;11641;51.018;4.474;2023-02-28T16:50:52;10.50;51.40
22950;DHT22;11641;51.018;4.474;2023-02-28T16:53:18;10.20;52.30
22950;DHT22;11641;51.018;4.474;2023-02-28T16:55:43;9.90;53.00
22950;DHT22;11641;51.018;4.474;2023-02-28T16:58:14;9.70;53.30
22950;DHT22;11641;51.018;4.474;2023-02-28T17:00:40;9.60;53.90
22950;DHT22;11641;51.018;4.474;2023-02-28T17:03:22;9.30;54.70
22950;DHT22;11641;51.018;4.474;2023-02-28T17:05:48;9.00;55.40
22950;DHT22;11641;51.018;4.474;2023-02-28T17:08:16;8.80;56.20
22950;DHT22;11641;51.018;4.474;2023-02-28T17:10:42;8.70;56.80
22950;DHT22;11641;51.018;4.474;2023-02-28T17:13:08;8.60;57.40
22950;DHT22;11641;51.018;4.474;2023-02-28T17:15:35;8.50;57.90
22950;DHT22;11641;51.018;4.474;2023-02-28T17:18:03;8.30;58.30
22950;DHT22;11641;51.018;4.474;2023-02-28T17:20:49;8.30;58.90
22950;DHT22;11641;51.018;4.474;2023-02-28T17:23:15;8.20;59.40
22950;DHT22;11641;51.018;4.474;2023-02-28T17:25:43;8.10;59.80
22950;DHT22;11641;51.018;4.474;2023-02-28T17:28:20;8.00;60.20
22950;DHT22;11641;51.018;4.474;2023-02-28T17:30:46;7.90;60.90
22950;DHT22;11641;51.018;4.474;2023-02-28T17:33:13;7.80;61.60
22950;DHT22;11641;51.018;4.474;2023-02-28T17:35:38;7.80;61.50
22950;DHT22;11641;51.018;4.474;2023-02-28T17:38:04;7.70;62.50
22950;DHT22;11641;51.018;4.474;2023-02-28T17:40:29;7.50;63.20
22950;DHT22;11641;51.018;4.474;2023-02-28T17:42:59;7.40;63.80
22950;DHT22;11641;51.018;4.474;2023-02-28T17:45:25;7.30;64.60
22950;DHT22;11641;51.018;4.474;2023-02-28T17:47:53;7.20;64.90
22950;DHT22;11641;51.018;4.474;2023-02-28T17:50:21;7.10;65.50
22950;DHT22;11641;51.018;4.474;2023-02-28T17:52:55;7.10;65.70
22950;DHT22;11641;51.018;4.474;2023-02-28T17:55:21;7.10;66.00
22950;DHT22;11641;51.018;4.474;2023-02-28T17:57:47;7.00;66.60
22950;DHT22;11641;51.018;4.474;2023-02-28T18:00:15;7.00;66.50
22950;DHT22;11641;51.018;4.474;2023-02-28T18:02:44;6.90;67.00
22950;DHT22;11641;51.018;4.474;2023-02-28T18:05:10;6.90;68.30
22950;DHT22;11641;51.018;4.474;2023-02-28T18:07:37;6.80;67.80
22950;DHT22;11641;51.018;4.474;2023-02-28T18:10:05;6.70;69.10
22950;DHT22;11641;51.018;4.474;2023-02-28T18:12:31;6.60;69.10
22950;DHT22;11641;51.018;4.474;2023-02-28T18:14:59;6.60;69.80
22950;DHT22;11641;51.018;4.474;2023-02-28T18:17:25;6.60;70.60
22950;DHT22;11641;51.018;4.474;2023-02-28T18:19:51;6.60;70.60